createdAt,value
2023-04-16T00:00:48.719Z,22.90
2023-04-16T00:05:56.292Z,29.90
2023-04-16T00:11:00.144Z,23.15
2023-04-16T00:16:03.808Z,23.23
2023-04-16T00:21:08.897Z,32.45
2023-04-16T00:26:12.564Z,22.08
2023-04-16T00:31:19.254Z,25.63
2023-04-16T00:36:25.514Z,23.30
2023-04-16T00:41:29.208Z,25.67
2023-04-16T00:46:33.805Z,22.52
2023-04-16T00:51:38.871Z,24.10
2023-04-16T00:56:42.895Z,26.30
2023-04-16T01:01:46.476Z,26.02
2023-04-16T01:06:52.228Z,26.35
2023-04-16T01:11:55.921Z,31.80
2023-04-16T01:16:59.580Z,35.22
2023-04-16T01:22:04.784Z,35.78
2023-04-16T01:27:08.432Z,43.70
2023-04-16T01:32:11.825Z,45.63
2023-04-16T01:42:22.636Z,40.97
2023-04-16T01:47:27.422Z,33.28
2023-04-16T01:52:33.151Z,31.90
2023-04-16T01:57:36.849Z,38.33
2023-04-16T02:02:41.561Z,29.65
2023-04-16T02:07:46.671Z,27.07
2023-04-16T02:12:51.047Z,30.05
2023-04-16T02:17:57.024Z,29.07
2023-04-16T02:23:02.915Z,28.77
2023-04-16T02:28:06.439Z,28.10
2023-04-16T02:33:14.455Z,23.95
2023-04-16T02:38:29.413Z,28.45
2023-04-16T02:43:32.717Z,26.17
2023-04-16T02:48:35.914Z,22.23
2023-04-16T02:53:40.745Z,20.08
2023-04-16T02:58:44.036Z,18.13
2023-04-16T03:03:47.305Z,27.73
2023-04-16T03:08:51.913Z,20.45
2023-04-16T03:13:55.147Z,16.83
2023-04-16T03:18:58.810Z,19.13
2023-04-16T03:24:03.695Z,19.90
2023-04-16T03:29:07.683Z,16.83
2023-04-16T03:34:12.146Z,19.75
2023-04-16T03:39:18.532Z,21.98
2023-04-16T03:44:22.926Z,22.67
2023-04-16T03:49:27.016Z,19.70
2023-04-16T03:54:32.145Z,23.00
2023-04-16T03:59:47.365Z,21.98
2023-04-16T04:04:53.175Z,18.35
2023-04-16T04:09:58.236Z,16.67
2023-04-16T04:15:01.986Z,18.77
2023-04-16T04:20:06.516Z,17.73
2023-04-16T04:25:11.938Z,15.38
2023-04-16T04:30:15.285Z,14.77
2023-04-16T04:35:19.415Z,17.95
2023-04-16T04:40:25.721Z,18.02
2023-04-16T04:45:31.789Z,13.80
2023-04-16T04:50:37.481Z,18.98
2023-04-16T04:55:42.554Z,14.07
2023-04-16T05:00:45.913Z,20.10
2023-04-16T05:05:49.319Z,16.83
2023-04-16T05:10:54.020Z,13.13
2023-04-16T05:15:57.306Z,11.30
2023-04-16T05:21:00.594Z,13.20
2023-04-16T05:26:05.321Z,11.90
2023-04-16T05:31:09.001Z,10.48
2023-04-16T05:36:12.638Z,24.52
2023-04-16T05:41:17.795Z,12.50
2023-04-16T05:46:21.459Z,10.30
2023-04-16T05:51:27.307Z,10.55
2023-04-16T05:56:31.920Z,14.07
2023-04-16T06:01:35.218Z,13.88
2023-04-16T06:06:38.598Z,12.50
2023-04-16T06:11:43.320Z,12.98
2023-04-16T06:16:47.038Z,13.87
2023-04-16T06:21:50.399Z,8.77
2023-04-16T06:26:55.524Z,17.52
2023-04-16T06:37:02.720Z,22.65
2023-04-16T06:42:07.792Z,14.43
2023-04-16T06:47:11.548Z,15.15
2023-04-16T06:52:14.845Z,15.73
2023-04-16T06:57:19.562Z,17.98
2023-04-16T07:02:22.914Z,9.03
2023-04-16T07:07:26.301Z,9.00
2023-04-16T07:12:31.607Z,8.48
2023-04-16T07:17:34.844Z,8.90
2023-04-16T07:22:38.071Z,8.15
2023-04-16T07:27:42.726Z,14.88
2023-04-16T07:32:45.997Z,9.77
2023-04-16T07:37:49.189Z,10.00
2023-04-16T07:42:53.879Z,8.32
2023-04-16T07:47:57.184Z,9.70
2023-04-16T07:53:00.492Z,9.35
2023-04-16T07:58:06.835Z,10.10
2023-04-16T08:03:10.354Z,9.55
2023-04-16T08:08:14.119Z,9.65
2023-04-16T08:13:19.198Z,6.78
2023-04-16T08:18:23.015Z,5.95
2023-04-16T08:23:27.048Z,6.18
2023-04-16T08:28:32.260Z,5.00
2023-04-16T08:33:35.916Z,6.22
2023-04-16T08:38:39.216Z,6.60
2023-04-16T08:43:49.543Z,6.25
2023-04-16T08:48:56.556Z,6.10
2023-04-16T08:54:05.428Z,11.13
2023-04-16T08:59:11.134Z,5.28
2023-04-16T09:04:16.970Z,6.65
2023-04-16T09:09:22.651Z,4.72
2023-04-16T09:19:30.673Z,14.77
2023-04-16T09:24:35.500Z,16.83
2023-04-16T09:29:42.130Z,17.17
2023-04-16T09:35:06.597Z,16.85
2023-04-16T09:40:10.942Z,22.17
2023-04-16T09:45:15.966Z,11.57
2023-04-16T09:50:21.587Z,14.82
2023-04-16T09:55:28.879Z,16.70
2023-04-16T10:00:33.983Z,11.65
2023-04-16T10:05:37.639Z,13.40
2023-04-16T10:10:42.685Z,11.68
2023-04-16T10:15:47.804Z,11.23
2023-04-16T10:20:51.862Z,14.05
2023-04-16T10:25:57.596Z,10.45
2023-04-16T10:31:05.618Z,11.20
2023-04-16T10:36:10.881Z,12.35
2023-04-16T10:41:14.961Z,16.77
2023-04-16T10:46:24.987Z,13.07
2023-04-16T10:51:31.518Z,10.98
2023-04-16T10:56:36.253Z,10.23
2023-04-16T11:01:44.063Z,10.43
2023-04-16T11:07:05.777Z,7.30
2023-04-16T11:12:10.444Z,8.23
2023-04-16T11:17:15.105Z,7.77
2023-04-16T11:22:19.240Z,8.83
2023-04-16T11:27:23.329Z,6.78
2023-04-16T11:32:28.508Z,6.82
2023-04-16T11:37:36.405Z,7.38
2023-04-16T11:42:41.442Z,7.10
2023-04-16T11:47:50.295Z,7.43
2023-04-16T11:52:55.580Z,5.20
2023-04-16T11:57:59.167Z,5.55
2023-04-16T12:03:04.492Z,5.45
2023-04-16T12:08:09.778Z,5.15
2023-04-16T12:13:13.987Z,5.22
2023-04-16T12:18:20.206Z,3.70
2023-04-16T12:23:28.261Z,6.50
2023-04-16T12:28:32.719Z,6.63
2023-04-16T12:33:37.641Z,6.75
2023-04-16T12:38:40.853Z,6.60
2023-04-16T12:43:44.141Z,5.25
2023-04-16T12:48:49.841Z,4.53
2023-04-16T12:53:53.893Z,5.88
2023-04-16T12:58:57.207Z,7.47
2023-04-16T13:04:01.953Z,6.13
2023-04-16T13:09:05.858Z,7.90
2023-04-16T13:14:09.478Z,7.40
2023-04-16T13:19:16.238Z,8.90
2023-04-16T13:24:19.881Z,6.93
2023-04-16T13:29:23.201Z,8.00
2023-04-16T13:34:27.865Z,8.25
2023-04-16T13:39:31.199Z,7.57
2023-04-16T13:44:34.455Z,12.43
2023-04-16T13:49:39.485Z,9.43
2023-04-16T13:54:42.772Z,13.43
2023-04-16T13:59:56.179Z,12.65
2023-04-16T14:05:00.853Z,13.57
2023-04-16T14:10:04.576Z,11.93
2023-04-16T14:15:09.704Z,11.23
2023-04-16T14:20:15.711Z,13.97
2023-04-16T14:25:19.037Z,13.05
2023-04-16T14:30:22.701Z,13.02
2023-04-16T14:35:27.636Z,14.15
2023-04-16T14:40:31.273Z,14.80
2023-04-16T14:45:35.086Z,14.45
2023-04-16T14:50:43.635Z,13.32
2023-04-16T14:55:47.608Z,15.38
2023-04-16T15:00:51.301Z,16.45
2023-04-16T15:05:56.509Z,15.30
2023-04-16T15:10:59.878Z,11.53
2023-04-16T15:16:04.471Z,11.30
2023-04-16T15:21:11.109Z,13.63
2023-04-16T15:26:15.653Z,14.93
2023-04-16T15:31:20.900Z,12.82
2023-04-16T15:36:26.828Z,11.75
2023-04-16T15:41:31.900Z,11.93
2023-04-16T15:46:35.447Z,15.00
2023-04-16T15:51:40.790Z,9.98
2023-04-16T15:56:44.420Z,11.27
2023-04-16T16:01:48.090Z,12.10
2023-04-16T16:06:53.195Z,11.98
2023-04-16T16:11:58.265Z,10.68
2023-04-16T16:17:02.145Z,8.98
2023-04-16T16:22:08.252Z,7.15
2023-04-16T16:27:12.001Z,8.55
2023-04-16T16:32:16.436Z,9.77
2023-04-16T16:37:21.116Z,8.50
2023-04-16T16:42:25.055Z,7.90
2023-04-16T16:47:28.552Z,10.23
2023-04-16T16:52:33.624Z,9.02
2023-04-16T16:57:36.936Z,8.93
2023-04-16T17:02:40.719Z,8.20
2023-04-16T17:07:46.347Z,7.45
2023-04-16T17:17:54.141Z,9.32
2023-04-16T17:22:59.977Z,8.10
2023-04-16T17:28:03.980Z,8.30
2023-04-16T17:33:07.956Z,13.43
2023-04-16T17:38:13.115Z,13.15
2023-04-16T17:43:16.765Z,13.45
2023-04-16T17:48:20.429Z,14.45
2023-04-16T17:53:25.369Z,14.68
2023-04-16T17:58:33.227Z,14.23
2023-04-16T18:03:37.818Z,15.85
2023-04-16T18:08:43.082Z,16.17
2023-04-16T18:13:46.922Z,17.75
2023-04-16T18:18:51.021Z,16.27
2023-04-16T18:23:56.380Z,19.10
2023-04-16T18:29:00.481Z,19.80
2023-04-16T18:34:04.410Z,20.85
2023-04-16T18:39:09.622Z,25.55
2023-04-16T18:44:12.985Z,18.10
2023-04-16T18:49:16.647Z,19.13
2023-04-16T18:54:21.605Z,16.85
2023-04-16T18:59:25.432Z,14.35
2023-04-16T19:04:29.015Z,18.17
2023-04-16T19:09:34.057Z,17.30
2023-04-16T19:14:37.704Z,18.70
2023-04-16T19:19:41.519Z,24.75
2023-04-16T19:24:46.712Z,18.92
2023-04-16T19:29:50.343Z,18.90
2023-04-16T19:34:54.130Z,25.33
2023-04-16T19:39:59.687Z,26.75
2023-04-16T19:50:08.190Z,20.70
2023-04-16T19:55:13.431Z,21.47
2023-04-16T20:00:17.862Z,20.67
2023-04-16T20:05:21.675Z,20.92
2023-04-16T20:10:27.016Z,23.30
2023-04-16T20:15:30.749Z,18.65
2023-04-16T20:20:36.787Z,16.73
2023-04-16T20:25:44.286Z,22.65
2023-04-16T20:30:47.514Z,20.92
2023-04-16T20:35:52.210Z,19.02
2023-04-16T20:41:06.322Z,18.70
2023-04-16T20:46:10.034Z,16.55
2023-04-16T20:51:13.440Z,17.23
2023-04-16T20:56:18.798Z,16.08
2023-04-16T21:01:22.616Z,16.00
2023-04-16T21:06:26.342Z,19.45
2023-04-16T21:11:33.799Z,19.83
2023-04-16T21:16:37.643Z,21.77
2023-04-16T21:21:42.046Z,15.68
2023-04-16T21:26:47.140Z,17.13
2023-04-16T21:31:50.756Z,13.95
2023-04-16T21:36:54.441Z,18.50
2023-04-16T21:41:59.507Z,18.55
2023-04-16T21:47:03.177Z,14.40
2023-04-16T21:52:14.469Z,12.20
2023-04-16T21:57:19.212Z,15.80
2023-04-16T22:02:23.079Z,11.37
2023-04-16T22:07:27.613Z,13.98
2023-04-16T22:12:32.933Z,11.65
2023-04-16T22:17:36.640Z,9.10
2023-04-16T22:22:40.150Z,14.00
2023-04-16T22:27:45.260Z,12.65
2023-04-16T22:32:49.326Z,9.98
2023-04-16T22:37:52.994Z,11.68
2023-04-16T22:42:58.073Z,8.90
2023-04-16T22:48:01.757Z,10.63
2023-04-16T22:53:05.425Z,9.13
2023-04-16T22:58:11.210Z,10.57
2023-04-16T23:03:15.218Z,13.52
2023-04-16T23:08:18.858Z,13.95
2023-04-16T23:13:23.711Z,12.40
2023-04-16T23:18:27.321Z,14.27
2023-04-16T23:23:31.030Z,12.75
2023-04-16T23:28:36.004Z,15.95
2023-04-16T23:33:39.709Z,20.37
2023-04-16T23:38:43.629Z,13.88
2023-04-16T23:43:48.623Z,16.00
2023-04-16T23:48:53.164Z,17.83
2023-04-16T23:53:56.846Z,18.40
2023-04-16T23:59:01.848Z,16.83
